Time;durP1;ratioP1;P1;durP2;ratioP2;P2;SDS_P1;SDS_P2;PMS_P1;PMS_P2;Temp;Humidity;BMP_temperature;BMP_pressure;BME280_temperature;BME280_humidity;BME280_pressure;Samples;Min_cycle;Max_cycle;Signal;HPM_P1;HPM_P2
2023/08/11 00:00:41;;;;;;;10.98;8.63;;;;;;;;;;5090990;28;20527;-68
2023/08/11 00:03:07;;;;;;;9.30;7.85;;;;;;;;;;5090750;28;20039;-68
2023/08/11 00:05:37;;;;;;;10.57;8.82;;;;;;;;;;5090875;28;20040;-68
2023/08/11 00:08:05;;;;;;;12.65;7.95;;;;;;;;;;5097465;28;20071;-68
2023/08/11 00:10:32;;;;;;;11.18;8.60;;;;;;;;;;5110988;28;20663;-68
2023/08/11 00:12:58;;;;;;;10.90;8.18;;;;;;;;;;5110783;28;20047;-68
2023/08/11 00:15:24;;;;;;;10.43;8.68;;;;;;;;;;5110905;28;20054;-68
2023/08/11 00:17:53;;;;;;;10.55;8.60;;;;;;;;;;5110561;28;20047;-68
2023/08/11 00:20:20;;;;;;;10.55;8.60;;;;;;;;;;5111118;28;20470;-68
2023/08/11 00:22:46;;;;;;;12.48;8.98;;;;;;;;;;5111070;28;20418;-68
2023/08/11 00:25:12;;;;;;;13.45;9.60;;;;;;;;;;5110825;28;20078;-68
2023/08/11 00:27:38;;;;;;;11.85;9.63;;;;;;;;;;5111106;28;20040;-68
2023/08/11 00:30:05;;;;;;;10.45;8.63;;;;;;;;;;5109755;28;20047;-68
2023/08/11 00:32:31;;;;;;;14.63;9.70;;;;;;;;;;5110726;28;20487;-68
2023/08/11 00:34:57;;;;;;;12.63;9.88;;;;;;;;;;5111019;28;20119;-68
2023/08/11 00:37:23;;;;;;;13.38;9.65;;;;;;;;;;5111156;28;20127;-68
2023/08/11 00:39:51;;;;;;;13.70;10.25;;;;;;;;;;5110655;28;20054;-68
2023/08/11 00:42:17;;;;;;;10.95;9.27;;;;;;;;;;5110814;28;20118;-68
2023/08/11 00:44:44;;;;;;;13.02;9.70;;;;;;;;;;5109723;28;20039;-68
2023/08/11 00:47:10;;;;;;;12.45;10.73;;;;;;;;;;5110113;28;20146;-68
2023/08/11 00:49:36;;;;;;;17.95;10.95;;;;;;;;;;5110856;28;20114;-68
2023/08/11 00:52:03;;;;;;;12.65;10.73;;;;;;;;;;5110862;28;20043;-68
2023/08/11 00:54:30;;;;;;;14.50;11.63;;;;;;;;;;5113706;28;20089;-68
2023/08/11 00:56:56;;;;;;;15.18;10.98;;;;;;;;;;5114821;27;20039;-68
2023/08/11 00:59:23;;;;;;;14.82;11.18;;;;;;;;;;5114393;28;20047;-68
2023/08/11 01:01:49;;;;;;;16.33;11.65;;;;;;;;;;5114149;28;20427;-68
2023/08/11 01:04:15;;;;;;;14.85;11.80;;;;;;;;;;5114378;28;20582;-68
2023/08/11 01:06:48;;;;;;;13.77;11.48;;;;;;;;;;5114475;28;20031;-68
2023/08/11 01:09:35;;;;;;;13.13;11.52;;;;;;;;;;5113950;28;20402;-68
2023/08/11 01:12:13;;;;;;;16.10;12.55;;;;;;;;;;5114340;28;20051;-68
2023/08/11 01:14:47;;;;;;;16.48;12.63;;;;;;;;;;5114296;28;20056;-68
2023/08/11 01:17:13;;;;;;;14.85;12.23;;;;;;;;;;5113785;28;20122;-68
2023/08/11 01:19:40;;;;;;;16.38;12.73;;;;;;;;;;5113997;27;20047;-68
2023/08/11 01:22:10;;;;;;;18.23;14.27;;;;;;;;;;5114034;28;20043;-68
2023/08/11 01:24:37;;;;;;;16.80;13.90;;;;;;;;;;5146527;27;20541;-68
2023/08/11 01:27:03;;;;;;;15.95;13.52;;;;;;;;;;5113877;28;20470;-68
2023/08/11 01:29:29;;;;;;;18.98;13.98;;;;;;;;;;5113804;28;20035;-68
2023/08/11 01:31:56;;;;;;;17.67;13.80;;;;;;;;;;5113226;28;20046;-68
2023/08/11 01:34:22;;;;;;;16.85;13.77;;;;;;;;;;5113852;28;20043;-68
2023/08/11 01:36:51;;;;;;;17.83;13.55;;;;;;;;;;5113933;28;20043;-68
2023/08/11 01:39:17;;;;;;;17.30;13.38;;;;;;;;;;5113228;28;20051;-68
2023/08/11 01:41:43;;;;;;;16.02;14.02;;;;;;;;;;5113253;28;20039;-68
2023/08/11 01:44:09;;;;;;;17.35;14.38;;;;;;;;;;5113562;28;20044;-68
2023/08/11 01:46:35;;;;;;;16.25;13.77;;;;;;;;;;5113238;28;20134;-68
2023/08/11 01:49:01;;;;;;;17.02;14.23;;;;;;;;;;5113270;28;20043;-68
2023/08/11 01:51:28;;;;;;;15.48;13.32;;;;;;;;;;5113684;28;20035;-68
2023/08/11 01:53:54;;;;;;;20.58;14.95;;;;;;;;;;5112830;28;20047;-68
2023/08/11 01:56:21;;;;;;;20.50;15.00;;;;;;;;;;5113620;28;20108;-68
2023/08/11 01:58:47;;;;;;;19.40;14.68;;;;;;;;;;5113412;28;20042;-68
2023/08/11 02:01:13;;;;;;;18.08;15.43;;;;;;;;;;5112946;28;20040;-68
2023/08/11 02:03:40;;;;;;;20.73;15.20;;;;;;;;;;5113080;28;20126;-68
2023/08/11 02:06:06;;;;;;;19.40;15.30;;;;;;;;;;5112561;28;20039;-68
2023/08/11 02:08:32;;;;;;;19.85;15.18;;;;;;;;;;5112549;28;20036;-68
2023/08/11 02:10:58;;;;;;;18.60;14.73;;;;;;;;;;5113161;28;20419;-68
2023/08/11 02:13:25;;;;;;;21.60;15.70;;;;;;;;;;5112448;28;20117;-68
2023/08/11 02:15:51;;;;;;;19.20;14.35;;;;;;;;;;5112504;28;20555;-68
2023/08/11 02:18:17;;;;;;;18.40;15.10;;;;;;;;;;5112861;28;20461;-68
2023/08/11 02:20:43;;;;;;;17.45;14.57;;;;;;;;;;5112802;28;20067;-68
2023/08/11 02:23:09;;;;;;;21.15;16.15;;;;;;;;;;5112401;28;20074;-68
2023/08/11 02:25:36;;;;;;;19.48;15.80;;;;;;;;;;5112834;28;20111;-68
2023/08/11 02:28:03;;;;;;;19.40;16.15;;;;;;;;;;5112863;28;20530;-68
2023/08/11 02:30:30;;;;;;;19.00;15.82;;;;;;;;;;5112321;28;20050;-68
2023/08/11 02:32:56;;;;;;;18.65;15.45;;;;;;;;;;5112483;28;20089;-68
2023/08/11 02:35:22;;;;;;;20.92;15.88;;;;;;;;;;5112365;28;20044;-68
2023/08/11 02:37:49;;;;;;;20.75;16.02;;;;;;;;;;5112047;28;20047;-68
2023/08/11 02:40:17;;;;;;;18.08;15.13;;;;;;;;;;5112467;28;20078;-68
2023/08/11 02:42:48;;;;;;;17.98;14.90;;;;;;;;;;5112048;28;20130;-68
2023/08/11 02:45:15;;;;;;;18.60;15.55;;;;;;;;;;5110489;28;20126;-68
2023/08/11 02:47:41;;;;;;;21.55;16.35;;;;;;;;;;5112149;27;20039;-68
2023/08/11 02:50:08;;;;;;;19.02;16.13;;;;;;;;;;5112272;28;20043;-68
2023/08/11 02:52:34;;;;;;;17.92;15.75;;;;;;;;;;5111659;28;20061;-68
2023/08/11 02:55:01;;;;;;;22.35;16.13;;;;;;;;;;5112154;28;20126;-68
2023/08/11 02:57:27;;;;;;;21.13;16.33;;;;;;;;;;5112074;28;20470;-68
2023/08/11 02:59:53;;;;;;;19.10;15.20;;;;;;;;;;5111408;28;20044;-68
2023/08/11 03:02:19;;;;;;;19.75;15.82;;;;;;;;;;5112024;28;20697;-68
2023/08/11 03:04:45;;;;;;;16.92;15.13;;;;;;;;;;5111606;28;20043;-68
2023/08/11 03:07:12;;;;;;;18.27;16.35;;;;;;;;;;5111576;28;20042;-68
2023/08/11 03:09:39;;;;;;;18.27;15.57;;;;;;;;;;5111780;28;20062;-68
2023/08/11 03:12:05;;;;;;;20.25;15.43;;;;;;;;;;5111692;28;20144;-68
2023/08/11 03:14:31;;;;;;;17.15;14.80;;;;;;;;;;5144333;27;20050;-68
2023/08/11 03:16:59;;;;;;;17.48;15.35;;;;;;;;;;5111479;28;20378;-68
2023/08/11 03:19:25;;;;;;;19.60;14.35;;;;;;;;;;5111804;28;20602;-68
2023/08/11 03:21:51;;;;;;;17.38;13.75;;;;;;;;;;5111266;28;20047;-68
2023/08/11 03:24:17;;;;;;;18.90;14.23;;;;;;;;;;5111601;28;20031;-68
2023/08/11 03:26:43;;;;;;;15.73;13.95;;;;;;;;;;5111607;28;20046;-68
2023/08/11 03:29:09;;;;;;;19.70;14.65;;;;;;;;;;5111046;28;20043;-68
2023/08/11 03:31:35;;;;;;;17.00;14.32;;;;;;;;;;5111743;28;20791;-68
2023/08/11 03:34:01;;;;;;;18.92;14.55;;;;;;;;;;5111428;28;20043;-68
2023/08/11 03:36:27;;;;;;;17.25;14.23;;;;;;;;;;5111332;28;20683;-68
2023/08/11 03:38:53;;;;;;;14.93;12.90;;;;;;;;;;5111232;28;20035;-68
2023/08/11 03:41:19;;;;;;;16.15;14.00;;;;;;;;;;5111024;28;20040;-68
2023/08/11 03:43:45;;;;;;;17.00;13.75;;;;;;;;;;5110739;28;20043;-68
2023/08/11 03:46:11;;;;;;;23.13;13.77;;;;;;;;;;5110698;28;20089;-68
2023/08/11 03:48:38;;;;;;;17.02;13.32;;;;;;;;;;5110019;28;20035;-68
2023/08/11 03:51:04;;;;;;;15.43;13.75;;;;;;;;;;5111318;28;20035;-68
2023/08/11 03:53:30;;;;;;;16.83;13.30;;;;;;;;;;5110827;28;20603;-68
2023/08/11 03:55:57;;;;;;;17.55;13.18;;;;;;;;;;5111156;28;20124;-68
2023/08/11 03:58:23;;;;;;;15.52;13.02;;;;;;;;;;5111314;28;20468;-68
2023/08/11 04:00:49;;;;;;;15.55;12.32;;;;;;;;;;5110821;28;20046;-68
2023/08/11 04:03:15;;;;;;;16.75;12.85;;;;;;;;;;5111253;28;20118;-68
2023/08/11 04:05:42;;;;;;;15.50;11.27;;;;;;;;;;5111330;28;20064;-68
2023/08/11 04:08:08;;;;;;;15.35;12.15;;;;;;;;;;5110664;28;20083;-68
2023/08/11 04:10:35;;;;;;;16.90;12.30;;;;;;;;;;5111047;28;20440;-68
2023/08/11 04:13:01;;;;;;;14.93;12.10;;;;;;;;;;5110530;28;20111;-68
2023/08/11 04:15:27;;;;;;;13.63;11.82;;;;;;;;;;5110685;28;20086;-68
2023/08/11 04:17:53;;;;;;;17.05;11.88;;;;;;;;;;5111126;28;20040;-68
2023/08/11 04:20:19;;;;;;;14.25;11.60;;;;;;;;;;5109758;28;20661;-68
2023/08/11 04:22:45;;;;;;;20.05;12.40;;;;;;;;;;5110281;28;20043;-68
2023/08/11 04:25:12;;;;;;;14.73;12.02;;;;;;;;;;5109819;28;20611;-68
2023/08/11 04:27:41;;;;;;;18.45;12.55;;;;;;;;;;5091297;28;20626;-68
2023/08/11 04:30:09;;;;;;;16.90;12.23;;;;;;;;;;5094269;28;20470;-68
2023/08/11 04:32:35;;;;;;;21.90;12.57;;;;;;;;;;5094556;28;20059;-68
2023/08/11 04:35:04;;;;;;;17.88;12.60;;;;;;;;;;5094572;28;20364;-68
2023/08/11 04:37:30;;;;;;;13.82;11.85;;;;;;;;;;5093763;28;20115;-68
2023/08/11 04:39:56;;;;;;;22.42;12.60;;;;;;;;;;5094823;28;20121;-68
2023/08/11 04:42:22;;;;;;;19.48;12.75;;;;;;;;;;5094668;28;20383;-68
2023/08/11 04:44:48;;;;;;;16.17;12.15;;;;;;;;;;5094087;28;20150;-68
2023/08/11 04:47:14;;;;;;;16.73;12.65;;;;;;;;;;5094532;28;20131;-68
2023/08/11 04:49:41;;;;;;;14.25;11.93;;;;;;;;;;5094640;28;20055;-68
2023/08/11 04:52:08;;;;;;;15.65;12.43;;;;;;;;;;5097582;28;20415;-68
2023/08/11 04:54:34;;;;;;;18.75;14.35;;;;;;;;;;5114843;28;20047;-68
2023/08/11 04:57:00;;;;;;;16.83;12.98;;;;;;;;;;5114820;28;20040;-68
2023/08/11 04:59:26;;;;;;;14.73;12.38;;;;;;;;;;5114513;27;20370;-68
2023/08/11 05:01:52;;;;;;;15.10;12.10;;;;;;;;;;5114697;28;20043;-68
2023/08/11 05:04:18;;;;;;;15.68;11.57;;;;;;;;;;5114512;27;20039;-68
2023/08/11 05:06:44;;;;;;;16.58;12.45;;;;;;;;;;5114227;28;20043;-68
2023/08/11 05:09:10;;;;;;;17.15;11.95;;;;;;;;;;5114659;28;20039;-68
2023/08/11 05:11:37;;;;;;;14.88;11.57;;;;;;;;;;5114560;28;20035;-68
2023/08/11 05:14:03;;;;;;;13.77;11.52;;;;;;;;;;5113583;28;20066;-68
2023/08/11 05:16:29;;;;;;;13.48;11.40;;;;;;;;;;5114466;28;20075;-68
2023/08/11 05:18:55;;;;;;;15.50;11.75;;;;;;;;;;5114514;28;20086;-68
2023/08/11 05:21:22;;;;;;;17.17;12.13;;;;;;;;;;5112640;28;20043;-68
2023/08/11 05:23:48;;;;;;;15.05;11.18;;;;;;;;;;5114199;28;20114;-68
2023/08/11 05:26:14;;;;;;;15.23;11.55;;;;;;;;;;5114262;28;20425;-68
2023/08/11 05:28:40;;;;;;;19.15;13.60;;;;;;;;;;5113870;28;20108;-68
2023/08/11 05:31:07;;;;;;;14.75;11.82;;;;;;;;;;5114256;28;20397;-68
2023/08/11 05:33:33;;;;;;;16.08;11.90;;;;;;;;;;5114011;27;20489;-68
2023/08/11 05:35:59;;;;;;;16.38;11.13;;;;;;;;;;5112209;28;20397;-67
2023/08/11 05:38:25;;;;;;;15.75;11.55;;;;;;;;;;5113426;28;20043;-68
2023/08/11 05:40:52;;;;;;;14.88;11.10;;;;;;;;;;5123747;27;20039;-68
2023/08/11 05:43:18;;;;;;;16.65;11.50;;;;;;;;;;5133788;27;20035;-67
2023/08/11 05:45:44;;;;;;;14.13;10.68;;;;;;;;;;5133954;27;20035;-67
2023/08/11 05:48:10;;;;;;;15.95;11.00;;;;;;;;;;5133995;27;20046;-67
2023/08/11 05:50:36;;;;;;;13.80;11.20;;;;;;;;;;5133812;27;20465;-67
2023/08/11 05:53:02;;;;;;;13.57;11.07;;;;;;;;;;5133884;27;20047;-67
2023/08/11 05:55:29;;;;;;;15.15;10.98;;;;;;;;;;5133758;27;20503;-68
2023/08/11 05:57:55;;;;;;;16.17;10.73;;;;;;;;;;5133677;27;20053;-67
2023/08/11 06:00:21;;;;;;;15.25;10.32;;;;;;;;;;5133831;27;20485;-68
2023/08/11 06:02:47;;;;;;;17.65;11.55;;;;;;;;;;5133778;27;20039;-67
2023/08/11 06:05:13;;;;;;;15.57;10.20;;;;;;;;;;5133421;27;20035;-67
2023/08/11 06:07:39;;;;;;;14.75;11.13;;;;;;;;;;5131225;27;20901;-67
2023/08/11 06:10:06;;;;;;;11.27;10.07;;;;;;;;;;5133838;27;20074;-67
2023/08/11 06:12:32;;;;;;;11.20;9.30;;;;;;;;;;5132852;27;20534;-67
2023/08/11 06:14:58;;;;;;;15.63;10.60;;;;;;;;;;5133613;27;20540;-67
2023/08/11 06:17:25;;;;;;;12.63;9.85;;;;;;;;;;5133316;27;20079;-67
2023/08/11 06:19:51;;;;;;;15.07;9.38;;;;;;;;;;5130270;27;20066;-67
2023/08/11 06:22:17;;;;;;;13.38;8.65;;;;;;;;;;5112658;28;20454;-67
2023/08/11 06:24:43;;;;;;;12.60;9.13;;;;;;;;;;5121550;27;20035;-67
2023/08/11 06:27:09;;;;;;;10.35;8.52;;;;;;;;;;5115016;27;20668;-67
2023/08/11 06:29:36;;;;;;;14.07;8.70;;;;;;;;;;5129646;27;20053;-67
2023/08/11 06:32:02;;;;;;;12.55;8.65;;;;;;;;;;5132837;27;20042;-67
2023/08/11 06:34:28;;;;;;;13.48;8.85;;;;;;;;;;5131541;27;20711;-66
2023/08/11 06:36:54;;;;;;;11.13;8.18;;;;;;;;;;5132927;27;20113;-67
2023/08/11 06:39:20;;;;;;;13.05;8.18;;;;;;;;;;5133139;27;20122;-67
2023/08/11 06:41:46;;;;;;;12.32;7.95;;;;;;;;;;5132363;27;20043;-68
2023/08/11 06:44:12;;;;;;;11.13;8.45;;;;;;;;;;5132573;27;20034;-67
2023/08/11 06:46:38;;;;;;;10.13;8.77;;;;;;;;;;5133037;27;20126;-67
2023/08/11 06:49:04;;;;;;;12.15;8.13;;;;;;;;;;5132392;27;20039;-67
2023/08/11 06:51:30;;;;;;;9.77;7.65;;;;;;;;;;5132474;27;20039;-67
2023/08/11 06:53:56;;;;;;;9.93;7.88;;;;;;;;;;5132654;27;20500;-66
2023/08/11 06:56:22;;;;;;;10.82;7.25;;;;;;;;;;5126318;27;20055;-67
2023/08/11 06:58:48;;;;;;;10.18;7.68;;;;;;;;;;5112482;28;20036;-66
2023/08/11 07:01:17;;;;;;;10.45;7.72;;;;;;;;;;5125515;27;20043;-66
2023/08/11 07:03:44;;;;;;;10.50;7.88;;;;;;;;;;5132132;27;20050;-66
2023/08/11 07:06:10;;;;;;;10.85;7.53;;;;;;;;;;5132787;27;20646;-67
2023/08/11 07:08:37;;;;;;;11.32;7.80;;;;;;;;;;5128022;27;20043;-67
2023/08/11 07:11:03;;;;;;;9.15;6.82;;;;;;;;;;5132413;27;20089;-67
2023/08/11 07:13:29;;;;;;;9.30;7.55;;;;;;;;;;5131735;27;20088;-67
2023/08/11 07:15:56;;;;;;;8.93;7.03;;;;;;;;;;5132280;27;20117;-65
2023/08/11 07:18:22;;;;;;;10.85;8.43;;;;;;;;;;5132172;27;20077;-67
2023/08/11 07:20:48;;;;;;;10.20;7.63;;;;;;;;;;5122616;27;20047;-67
2023/08/11 07:23:16;;;;;;;11.75;7.80;;;;;;;;;;5111659;28;20043;-66
2023/08/11 07:25:42;;;;;;;8.90;6.95;;;;;;;;;;5122731;27;20343;-66
2023/08/11 07:28:08;;;;;;;12.20;7.15;;;;;;;;;;5114359;27;20043;-66
2023/08/11 07:30:36;;;;;;;11.10;7.43;;;;;;;;;;5132005;27;20039;-66
2023/08/11 07:33:02;;;;;;;15.50;7.30;;;;;;;;;;5131992;27;20130;-66
2023/08/11 07:35:28;;;;;;;8.88;7.15;;;;;;;;;;5131503;27;20047;-66
2023/08/11 07:37:54;;;;;;;8.55;6.82;;;;;;;;;;5131990;27;20041;-67
2023/08/11 07:40:21;;;;;;;11.30;7.60;;;;;;;;;;5131925;27;20055;-67
2023/08/11 07:42:47;;;;;;;10.45;6.75;;;;;;;;;;5131522;27;20377;-67
2023/08/11 07:45:13;;;;;;;8.75;5.78;;;;;;;;;;5132109;27;20073;-67
2023/08/11 07:47:39;;;;;;;9.82;6.32;;;;;;;;;;5132112;27;20035;-67
2023/08/11 07:50:06;;;;;;;7.70;6.22;;;;;;;;;;5131521;27;20042;-67
2023/08/11 07:52:32;;;;;;;11.00;6.18;;;;;;;;;;5131916;27;20488;-67
2023/08/11 07:54:58;;;;;;;8.73;5.68;;;;;;;;;;5132056;27;20516;-67
2023/08/11 07:57:24;;;;;;;9.68;5.18;;;;;;;;;;5118005;27;20071;-67
2023/08/11 07:59:51;;;;;;;10.77;4.70;;;;;;;;;;5111445;28;20044;-67
2023/08/11 08:02:17;;;;;;;8.52;5.30;;;;;;;;;;5131635;27;20047;-67
2023/08/11 08:04:43;;;;;;;8.38;5.20;;;;;;;;;;5124871;27;20071;-67
2023/08/11 08:07:10;;;;;;;10.20;5.18;;;;;;;;;;5115544;28;20040;-67
2023/08/11 08:09:38;;;;;;;7.15;4.72;;;;;;;;;;5124461;27;20035;-67
2023/08/11 08:12:04;;;;;;;7.32;5.05;;;;;;;;;;5135542;27;20803;-67
2023/08/11 08:14:31;;;;;;;8.15;4.60;;;;;;;;;;5136094;27;20046;-67
2023/08/11 08:17:01;;;;;;;6.65;5.20;;;;;;;;;;5135941;27;20387;-67
2023/08/11 08:19:27;;;;;;;7.80;4.65;;;;;;;;;;5135420;27;20050;-67
2023/08/11 08:21:53;;;;;;;4.95;4.13;;;;;;;;;;5135573;27;20046;-67
2023/08/11 08:24:19;;;;;;;8.70;4.53;;;;;;;;;;5135476;27;20465;-67
2023/08/11 08:26:47;;;;;;;6.55;4.20;;;;;;;;;;5119616;27;20252;-67
2023/08/11 08:29:14;;;;;;;7.53;4.68;;;;;;;;;;5125554;27;20046;-67
2023/08/11 08:31:40;;;;;;;7.38;4.50;;;;;;;;;;5135659;27;20138;-67
2023/08/11 08:34:06;;;;;;;8.20;4.40;;;;;;;;;;5122108;27;20073;-67
2023/08/11 08:36:32;;;;;;;6.63;4.45;;;;;;;;;;5119822;27;20467;-67
2023/08/11 08:38:58;;;;;;;8.07;4.28;;;;;;;;;;5135791;27;20050;-66
2023/08/11 08:41:28;;;;;;;6.90;4.25;;;;;;;;;;5135232;27;20062;-67
2023/08/11 08:43:57;;;;;;;5.07;4.18;;;;;;;;;;5135376;27;20058;-68
2023/08/11 08:46:27;;;;;;;8.95;4.40;;;;;;;;;;5135450;27;20517;-67
2023/08/11 08:48:57;;;;;;;7.13;4.10;;;;;;;;;;5134875;27;20054;-67
2023/08/11 08:51:23;;;;;;;6.80;4.07;;;;;;;;;;5135196;27;20039;-67
2023/08/11 08:53:49;;;;;;;6.10;4.40;;;;;;;;;;5134991;27;20047;-67
2023/08/11 08:56:15;;;;;;;5.30;3.80;;;;;;;;;;5134274;27;20055;-67
2023/08/11 08:58:42;;;;;;;6.82;3.80;;;;;;;;;;5135263;27;20070;-67
2023/08/11 09:01:09;;;;;;;5.35;3.70;;;;;;;;;;5135051;27;20499;-68
2023/08/11 09:03:37;;;;;;;4.65;3.60;;;;;;;;;;5134438;27;20039;-68
2023/08/11 09:06:05;;;;;;;6.47;4.20;;;;;;;;;;5134772;27;20043;-67
2023/08/11 09:08:31;;;;;;;7.05;4.18;;;;;;;;;;5127268;27;20039;-67
2023/08/11 09:10:57;;;;;;;6.53;4.40;;;;;;;;;;5134682;27;20039;-66
2023/08/11 09:13:23;;;;;;;6.22;4.28;;;;;;;;;;5133990;27;20092;-67
2023/08/11 09:15:50;;;;;;;8.55;4.10;;;;;;;;;;5134848;27;20131;-68
2023/08/11 09:18:16;;;;;;;10.85;4.28;;;;;;;;;;5134340;27;20054;-67
2023/08/11 09:20:45;;;;;;;9.90;4.43;;;;;;;;;;5134654;27;20436;-67
2023/08/11 09:23:11;;;;;;;8.45;4.80;;;;;;;;;;5133394;27;20041;-67
2023/08/11 09:25:37;;;;;;;5.95;3.85;;;;;;;;;;5129242;27;20096;-67
2023/08/11 09:28:04;;;;;;;6.45;4.10;;;;;;;;;;5114000;28;20062;-67
2023/08/11 09:30:33;;;;;;;7.50;4.15;;;;;;;;;;5133489;27;20479;-67
2023/08/11 09:33:00;;;;;;;8.55;4.40;;;;;;;;;;5133668;27;20104;-68
2023/08/11 09:35:26;;;;;;;8.65;4.13;;;;;;;;;;5134266;27;20043;-67
2023/08/11 09:37:56;;;;;;;9.55;4.32;;;;;;;;;;5134360;27;20031;-66
2023/08/11 09:40:22;;;;;;;9.55;4.13;;;;;;;;;;5134057;27;20041;-67
2023/08/11 09:42:49;;;;;;;7.05;4.20;;;;;;;;;;5134413;27;20047;-67
2023/08/11 09:45:15;;;;;;;8.60;4.38;;;;;;;;;;5122916;27;20043;-67
2023/08/11 09:47:41;;;;;;;6.70;3.90;;;;;;;;;;5113390;28;20040;-68
2023/08/11 09:50:08;;;;;;;6.88;4.45;;;;;;;;;;5129282;27;20046;-68
2023/08/11 09:52:35;;;;;;;8.50;4.35;;;;;;;;;;5134093;27;20039;-68
2023/08/11 09:55:06;;;;;;;7.45;4.10;;;;;;;;;;5134029;27;20405;-67
2023/08/11 09:57:33;;;;;;;7.97;3.65;;;;;;;;;;5133733;27;20043;-68
2023/08/11 10:00:00;;;;;;;7.63;4.22;;;;;;;;;;5134185;27;20061;-68
2023/08/11 10:02:29;;;;;;;7.75;4.10;;;;;;;;;;5133444;27;20050;-67
2023/08/11 10:04:57;;;;;;;8.23;4.65;;;;;;;;;;5133826;27;20453;-68
2023/08/11 10:07:24;;;;;;;9.93;4.05;;;;;;;;;;5132598;27;20086;-68
2023/08/11 10:09:50;;;;;;;6.63;3.95;;;;;;;;;;5125275;27;20039;-68
2023/08/11 10:12:17;;;;;;;7.63;3.60;;;;;;;;;;5133583;27;20087;-68
2023/08/11 10:14:43;;;;;;;6.65;3.40;;;;;;;;;;5133253;27;20054;-68
2023/08/11 10:17:10;;;;;;;6.30;3.60;;;;;;;;;;5132278;27;20095;-68
2023/08/11 10:19:37;;;;;;;7.70;3.67;;;;;;;;;;5133733;27;20043;-67
2023/08/11 10:22:03;;;;;;;7.15;4.43;;;;;;;;;;5117873;27;20047;-67
2023/08/11 10:24:29;;;;;;;6.45;3.42;;;;;;;;;;5112941;28;20047;-67
2023/08/11 10:26:55;;;;;;;8.25;3.58;;;;;;;;;;5116919;27;20671;-67
2023/08/11 10:29:21;;;;;;;9.77;3.80;;;;;;;;;;5112373;28;20031;-66
2023/08/11 10:31:54;;;;;;;6.05;4.45;;;;;;;;;;5112459;28;20110;-66
2023/08/11 10:34:24;;;;;;;6.55;3.35;;;;;;;;;;5128578;27;20057;-67
2023/08/11 10:36:51;;;;;;;9.00;3.70;;;;;;;;;;5133023;27;20636;-67
2023/08/11 10:39:21;;;;;;;6.75;3.33;;;;;;;;;;5130802;27;20066;-67
2023/08/11 10:41:47;;;;;;;7.28;3.75;;;;;;;;;;5132863;27;20035;-67
2023/08/11 10:44:18;;;;;;;7.82;3.72;;;;;;;;;;5132874;27;20067;-67
2023/08/11 10:46:45;;;;;;;7.63;2.80;;;;;;;;;;5132254;27;20122;-67
2023/08/11 10:49:11;;;;;;;5.28;3.20;;;;;;;;;;5132785;27;20039;-67
2023/08/11 10:51:37;;;;;;;6.38;3.30;;;;;;;;;;5133025;27;20043;-68
2023/08/11 10:54:06;;;;;;;6.95;3.50;;;;;;;;;;5132425;27;20122;-68
2023/08/11 10:56:38;;;;;;;8.77;3.65;;;;;;;;;;5132832;27;20086;-68
2023/08/11 10:59:17;;;;;;;5.30;2.78;;;;;;;;;;5133110;27;20461;-68
2023/08/11 11:01:45;;;;;;;5.13;3.33;;;;;;;;;;5132220;27;20035;-68
2023/08/11 11:04:12;;;;;;;6.75;3.50;;;;;;;;;;5132453;27;20461;-68
2023/08/11 11:06:39;;;;;;;6.30;3.40;;;;;;;;;;5132274;27;20123;-69
2023/08/11 11:09:06;;;;;;;4.68;2.83;;;;;;;;;;5115508;27;20104;-69
2023/08/11 11:11:33;;;;;;;6.43;3.05;;;;;;;;;;5112097;28;20127;-69
2023/08/11 11:13:59;;;;;;;4.55;2.38;;;;;;;;;;5122616;27;20468;-69
2023/08/11 11:16:27;;;;;;;4.53;3.08;;;;;;;;;;5132302;27;20127;-69
2023/08/11 11:18:53;;;;;;;14.27;2.97;;;;;;;;;;5132464;27;20039;-68
2023/08/11 11:21:19;;;;;;;6.32;2.80;;;;;;;;;;5132209;27;20129;-68
2023/08/11 11:23:46;;;;;;;9.73;3.05;;;;;;;;;;5131804;27;20042;-68
2023/08/11 11:26:14;;;;;;;6.35;2.70;;;;;;;;;;5122500;27;20478;-67
2023/08/11 11:28:40;;;;;;;6.60;2.78;;;;;;;;;;5111933;28;20112;-69
2023/08/11 11:31:06;;;;;;;5.38;2.45;;;;;;;;;;5131956;27;20465;-69
2023/08/11 11:33:32;;;;;;;4.40;2.78;;;;;;;;;;5133508;27;20088;-67
2023/08/11 11:35:59;;;;;;;3.97;2.55;;;;;;;;;;5132571;27;20857;-67
2023/08/11 11:38:25;;;;;;;9.00;2.83;;;;;;;;;;5131958;27;20122;-67
2023/08/11 11:40:51;;;;;;;8.25;2.90;;;;;;;;;;5132571;27;20408;-67
2023/08/11 11:43:18;;;;;;;4.30;2.28;;;;;;;;;;5132032;27;20070;-66
2023/08/11 11:45:47;;;;;;;4.50;2.58;;;;;;;;;;5131659;27;20039;-68
2023/08/11 11:48:13;;;;;;;5.63;2.90;;;;;;;;;;5132082;27;20054;-68
2023/08/11 11:50:39;;;;;;;8.73;2.92;;;;;;;;;;5131743;27;20043;-67
2023/08/11 11:53:06;;;;;;;4.03;2.97;;;;;;;;;;5131106;27;20684;-67
2023/08/11 11:55:32;;;;;;;6.20;2.78;;;;;;;;;;5131352;27;20027;-67
2023/08/11 11:57:58;;;;;;;5.57;3.05;;;;;;;;;;5131271;27;20546;-67
2023/08/11 12:00:25;;;;;;;4.50;2.47;;;;;;;;;;5131109;27;20512;-68
2023/08/11 12:02:53;;;;;;;8.80;2.75;;;;;;;;;;5130862;27;20544;-68
2023/08/11 12:05:21;;;;;;;6.18;2.92;;;;;;;;;;5129859;28;20055;-68
2023/08/11 12:07:47;;;;;;;6.05;2.35;;;;;;;;;;5126653;27;20088;-68
2023/08/11 12:10:15;;;;;;;5.63;2.83;;;;;;;;;;5123734;28;20648;-69
2023/08/11 12:12:42;;;;;;;4.05;2.60;;;;;;;;;;5131546;27;20130;-68
2023/08/11 12:15:08;;;;;;;8.45;2.47;;;;;;;;;;5130824;27;20055;-69
2023/08/11 12:17:35;;;;;;;4.82;2.65;;;;;;;;;;5131207;27;20047;-69
2023/08/11 12:20:06;;;;;;;6.28;2.60;;;;;;;;;;5131565;27;20087;-69
2023/08/11 12:22:32;;;;;;;5.72;2.70;;;;;;;;;;5131017;27;20050;-69
2023/08/11 12:24:58;;;;;;;5.15;2.50;;;;;;;;;;5130280;28;20035;-69
2023/08/11 12:27:25;;;;;;;4.45;2.40;;;;;;;;;;5113272;28;20039;-67
2023/08/11 12:29:51;;;;;;;5.80;2.75;;;;;;;;;;5110470;28;20114;-67
2023/08/11 12:32:17;;;;;;;5.15;2.53;;;;;;;;;;5110244;28;20035;-67
2023/08/11 12:34:43;;;;;;;7.03;2.60;;;;;;;;;;5110701;28;20046;-67
2023/08/11 12:37:09;;;;;;;4.15;2.30;;;;;;;;;;5110541;28;20075;-67
2023/08/11 12:39:35;;;;;;;3.97;2.25;;;;;;;;;;5110966;28;20043;-67
2023/08/11 12:42:01;;;;;;;6.20;2.30;;;;;;;;;;5110720;28;20040;-67
2023/08/11 12:44:27;;;;;;;3.88;2.50;;;;;;;;;;5110377;28;20093;-67
2023/08/11 12:46:53;;;;;;;6.65;2.58;;;;;;;;;;5110333;28;20039;-67
2023/08/11 12:49:19;;;;;;;3.95;2.42;;;;;;;;;;5112451;28;20032;-67
2023/08/11 12:51:50;;;;;;;5.75;2.50;;;;;;;;;;5114292;28;20513;-67
2023/08/11 12:54:16;;;;;;;5.22;2.40;;;;;;;;;;5114596;28;20046;-67
2023/08/11 12:56:42;;;;;;;3.20;2.30;;;;;;;;;;5114505;28;20517;-67
2023/08/11 12:59:08;;;;;;;6.85;2.65;;;;;;;;;;5114048;28;20036;-67
2023/08/11 13:01:34;;;;;;;3.88;2.78;;;;;;;;;;5114351;28;20048;-67
2023/08/11 13:04:02;;;;;;;7.35;2.80;;;;;;;;;;5113764;28;20074;-67
2023/08/11 13:06:28;;;;;;;3.20;2.50;;;;;;;;;;5113932;28;20089;-67
2023/08/11 13:08:54;;;;;;;4.22;2.28;;;;;;;;;;5100193;28;20044;-67
2023/08/11 13:11:20;;;;;;;6.63;2.92;;;;;;;;;;5093891;28;20123;-67
2023/08/11 13:13:47;;;;;;;4.68;2.58;;;;;;;;;;5093103;28;20656;-67
2023/08/11 13:16:13;;;;;;;5.72;2.70;;;;;;;;;;5093314;28;20086;-67
2023/08/11 13:18:39;;;;;;;5.60;2.42;;;;;;;;;;5126573;27;20047;-67
2023/08/11 13:21:05;;;;;;;6.45;2.95;;;;;;;;;;5093387;28;20048;-65
2023/08/11 13:23:32;;;;;;;7.65;3.20;;;;;;;;;;5093323;28;20386;-65
2023/08/11 13:25:58;;;;;;;4.63;2.70;;;;;;;;;;5133777;27;20358;-65
2023/08/11 13:28:24;;;;;;;4.88;3.08;;;;;;;;;;5113534;28;20036;-65
2023/08/11 13:30:50;;;;;;;4.95;2.83;;;;;;;;;;5113609;28;20071;-65
2023/08/11 13:33:16;;;;;;;7.45;3.22;;;;;;;;;;5113719;28;20047;-65
2023/08/11 13:35:42;;;;;;;7.63;2.58;;;;;;;;;;5113628;28;20398;-65
2023/08/11 13:38:08;;;;;;;6.85;3.00;;;;;;;;;;5113330;28;20374;-65
2023/08/11 13:40:34;;;;;;;5.18;2.90;;;;;;;;;;5113703;28;20048;-65
2023/08/11 13:43:00;;;;;;;3.45;2.40;;;;;;;;;;5113370;28;20054;-65
2023/08/11 13:45:26;;;;;;;4.20;2.50;;;;;;;;;;5113225;28;20409;-65
2023/08/11 13:47:53;;;;;;;3.45;2.60;;;;;;;;;;5113560;28;20082;-65
2023/08/11 13:50:19;;;;;;;3.13;2.22;;;;;;;;;;5113504;28;20047;-65
2023/08/11 13:52:45;;;;;;;8.18;2.78;;;;;;;;;;5113002;28;20039;-65
2023/08/11 13:55:11;;;;;;;3.60;2.80;;;;;;;;;;5113326;28;20079;-65
2023/08/11 13:57:37;;;;;;;6.72;2.85;;;;;;;;;;5113296;28;20043;-65
2023/08/11 14:00:07;;;;;;;4.88;2.72;;;;;;;;;;5112049;28;20036;-65
2023/08/11 14:02:33;;;;;;;4.68;2.40;;;;;;;;;;5112638;28;20160;-67
2023/08/11 14:04:59;;;;;;;4.65;2.78;;;;;;;;;;5113034;28;20040;-67
2023/08/11 14:07:25;;;;;;;5.72;3.10;;;;;;;;;;5112757;28;20046;-67
2023/08/11 14:09:51;;;;;;;6.97;2.55;;;;;;;;;;5112780;28;20394;-67
2023/08/11 14:12:18;;;;;;;5.15;2.80;;;;;;;;;;5112558;28;20039;-67
2023/08/11 14:14:44;;;;;;;7.15;3.03;;;;;;;;;;5112464;28;20051;-67
2023/08/11 14:17:10;;;;;;;8.13;2.40;;;;;;;;;;5112813;28;20043;-67
2023/08/11 14:19:36;;;;;;;4.32;2.50;;;;;;;;;;5112867;28;20058;-67
2023/08/11 14:22:02;;;;;;;5.20;2.65;;;;;;;;;;5112397;28;20058;-67
2023/08/11 14:24:28;;;;;;;4.57;2.55;;;;;;;;;;5112679;28;20466;-67
2023/08/11 14:26:54;;;;;;;3.42;2.53;;;;;;;;;;5112632;28;20044;-67